sensor_id;sensor_type;location;lat;lon;timestamp;P1;P2;P0
77365;PMS5003;66430;50.182;11.704;2023-04-12T00:02:20;4;4;
77365;PMS5003;66430;50.182;11.704;2023-04-12T00:04:46;4;4;
77365;PMS5003;66430;50.182;11.704;2023-04-12T00:07:11;5;5;
77365;PMS5003;66430;50.182;11.704;2023-04-12T00:09:37;4;4;
77365;PMS5003;66430;50.182;11.704;2023-04-12T00:12:03;5;5;
77365;PMS5003;66430;50.182;11.704;2023-04-12T00:14:28;3;3;
77365;PMS5003;66430;50.182;11.704;2023-04-12T00:16:54;3;3;
77365;PMS5003;66430;50.182;11.704;2023-04-12T00:19:19;2;2;
77365;PMS5003;66430;50.182;11.704;2023-04-12T00:21:45;4;2;
77365;PMS5003;66430;50.182;11.704;2023-04-12T00:24:11;4;4;
77365;PMS5003;66430;50.182;11.704;2023-04-12T00:26:36;3;3;
77365;PMS5003;66430;50.182;11.704;2023-04-12T00:29:01;3;3;
77365;PMS5003;66430;50.182;11.704;2023-04-12T00:31:27;6;4;
77365;PMS5003;66430;50.182;11.704;2023-04-12T00:33:52;4;4;
77365;PMS5003;66430;50.182;11.704;2023-04-12T00:36:18;3;3;
77365;PMS5003;66430;50.182;11.704;2023-04-12T00:38:44;4;3;
77365;PMS5003;66430;50.182;11.704;2023-04-12T00:41:09;3;3;
77365;PMS5003;66430;50.182;11.704;2023-04-12T00:43:35;2;2;
77365;PMS5003;66430;50.182;11.704;2023-04-12T00:46:00;2;2;
77365;PMS5003;66430;50.182;11.704;2023-04-12T00:48:26;4;4;
77365;PMS5003;66430;50.182;11.704;2023-04-12T00:50:52;5;2;
77365;PMS5003;66430;50.182;11.704;2023-04-12T00:53:17;3;3;
77365;PMS5003;66430;50.182;11.704;2023-04-12T00:55:43;3;2;
77365;PMS5003;66430;50.182;11.704;2023-04-12T00:58:09;4;4;
77365;PMS5003;66430;50.182;11.704;2023-04-12T01:00:34;4;3;
77365;PMS5003;66430;50.182;11.704;2023-04-12T01:02:59;3;3;
77365;PMS5003;66430;50.182;11.704;2023-04-12T01:05:25;6;4;
77365;PMS5003;66430;50.182;11.704;2023-04-12T01:07:53;4;3;
77365;PMS5003;66430;50.182;11.704;2023-04-12T01:10:18;2;2;
77365;PMS5003;66430;50.182;11.704;2023-04-12T01:12:43;2;2;
77365;PMS5003;66430;50.182;11.704;2023-04-12T01:15:08;3;3;
77365;PMS5003;66430;50.182;11.704;2023-04-12T01:17:35;3;3;
77365;PMS5003;66430;50.182;11.704;2023-04-12T01:19:59;7;3;
77365;PMS5003;66430;50.182;11.704;2023-04-12T01:22:29;5;4;
77365;PMS5003;66430;50.182;11.704;2023-04-12T01:24:53;3;2;
77365;PMS5003;66430;50.182;11.704;2023-04-12T01:29:40;3;3;
77365;PMS5003;66430;50.182;11.704;2023-04-12T01:32:06;3;3;
77365;PMS5003;66430;50.182;11.704;2023-04-12T01:34:32;2;2;
77365;PMS5003;66430;50.182;11.704;2023-04-12T01:36:57;3;2;
77365;PMS5003;66430;50.182;11.704;2023-04-12T01:39:22;5;3;
77365;PMS5003;66430;50.182;11.704;2023-04-12T01:41:48;5;5;
77365;PMS5003;66430;50.182;11.704;2023-04-12T01:44:14;3;3;
77365;PMS5003;66430;50.182;11.704;2023-04-12T01:46:39;3;3;
77365;PMS5003;66430;50.182;11.704;2023-04-12T01:49:05;2;2;
77365;PMS5003;66430;50.182;11.704;2023-04-12T01:51:33;5;4;
77365;PMS5003;66430;50.182;11.704;2023-04-12T01:53:56;4;3;
77365;PMS5003;66430;50.182;11.704;2023-04-12T01:56:21;3;3;
77365;PMS5003;66430;50.182;11.704;2023-04-12T01:58:47;3;2;
77365;PMS5003;66430;50.182;11.704;2023-04-12T02:01:13;2;2;
77365;PMS5003;66430;50.182;11.704;2023-04-12T02:03:38;4;4;
77365;PMS5003;66430;50.182;11.704;2023-04-12T02:06:03;2;2;
77365;PMS5003;66430;50.182;11.704;2023-04-12T02:08:29;2;2;
77365;PMS5003;66430;50.182;11.704;2023-04-12T02:10:55;4;3;
77365;PMS5003;66430;50.182;11.704;2023-04-12T02:13:20;4;4;
77365;PMS5003;66430;50.182;11.704;2023-04-12T02:15:46;2;2;
77365;PMS5003;66430;50.182;11.704;2023-04-12T02:18:11;3;3;
77365;PMS5003;66430;50.182;11.704;2023-04-12T02:20:37;3;3;
77365;PMS5003;66430;50.182;11.704;2023-04-12T02:23:03;4;2;
77365;PMS5003;66430;50.182;11.704;2023-04-12T02:25:28;2;2;
77365;PMS5003;66430;50.182;11.704;2023-04-12T02:27:53;5;3;
77365;PMS5003;66430;50.182;11.704;2023-04-12T02:30:19;3;3;
77365;PMS5003;66430;50.182;11.704;2023-04-12T02:32:46;4;4;
77365;PMS5003;66430;50.182;11.704;2023-04-12T02:35:10;4;3;
77365;PMS5003;66430;50.182;11.704;2023-04-12T02:37:36;2;2;
77365;PMS5003;66430;50.182;11.704;2023-04-12T02:40:01;4;3;
77365;PMS5003;66430;50.182;11.704;2023-04-12T02:42:27;4;4;
77365;PMS5003;66430;50.182;11.704;2023-04-12T02:44:52;3;3;
77365;PMS5003;66430;50.182;11.704;2023-04-12T02:47:18;3;3;
77365;PMS5003;66430;50.182;11.704;2023-04-12T02:49:44;6;6;
77365;PMS5003;66430;50.182;11.704;2023-04-12T02:52:09;4;4;
77365;PMS5003;66430;50.182;11.704;2023-04-12T02:54:35;4;4;
77365;PMS5003;66430;50.182;11.704;2023-04-12T02:57:00;7;7;
77365;PMS5003;66430;50.182;11.704;2023-04-12T02:59:26;11;8;
77365;PMS5003;66430;50.182;11.704;2023-04-12T03:01:51;9;7;
77365;PMS5003;66430;50.182;11.704;2023-04-12T03:04:17;11;7;
77365;PMS5003;66430;50.182;11.704;2023-04-12T03:06:43;12;9;
77365;PMS5003;66430;50.182;11.704;2023-04-12T03:09:08;12;8;
77365;PMS5003;66430;50.182;11.704;2023-04-12T03:11:35;17;16;
77365;PMS5003;66430;50.182;11.704;2023-04-12T03:13:58;22;16;
77365;PMS5003;66430;50.182;11.704;2023-04-12T03:16:25;18;16;
77365;PMS5003;66430;50.182;11.704;2023-04-12T03:18:51;12;11;
77365;PMS5003;66430;50.182;11.704;2023-04-12T03:21:16;16;13;
77365;PMS5003;66430;50.182;11.704;2023-04-12T03:23:41;14;10;
77365;PMS5003;66430;50.182;11.704;2023-04-12T03:26:06;18;15;
77365;PMS5003;66430;50.182;11.704;2023-04-12T03:28:32;26;24;
77365;PMS5003;66430;50.182;11.704;2023-04-12T03:30:57;27;26;
77365;PMS5003;66430;50.182;11.704;2023-04-12T03:33:22;39;34;
77365;PMS5003;66430;50.182;11.704;2023-04-12T03:35:47;29;28;
77365;PMS5003;66430;50.182;11.704;2023-04-12T03:38:13;31;28;
77365;PMS5003;66430;50.182;11.704;2023-04-12T03:40:39;32;29;
77365;PMS5003;66430;50.182;11.704;2023-04-12T03:43:04;38;32;
77365;PMS5003;66430;50.182;11.704;2023-04-12T03:45:30;23;21;
77365;PMS5003;66430;50.182;11.704;2023-04-12T03:47:56;20;19;
77365;PMS5003;66430;50.182;11.704;2023-04-12T03:50:21;18;18;
77365;PMS5003;66430;50.182;11.704;2023-04-12T03:52:46;15;14;
77365;PMS5003;66430;50.182;11.704;2023-04-12T03:55:12;13;13;
77365;PMS5003;66430;50.182;11.704;2023-04-12T03:57:37;14;14;
77365;PMS5003;66430;50.182;11.704;2023-04-12T04:00:03;13;13;
77365;PMS5003;66430;50.182;11.704;2023-04-12T04:02:28;13;13;
77365;PMS5003;66430;50.182;11.704;2023-04-12T04:04:54;15;15;
77365;PMS5003;66430;50.182;11.704;2023-04-12T04:07:20;16;16;
77365;PMS5003;66430;50.182;11.704;2023-04-12T04:09:45;18;17;
77365;PMS5003;66430;50.182;11.704;2023-04-12T04:12:10;13;13;
77365;PMS5003;66430;50.182;11.704;2023-04-12T04:14:36;14;12;
77365;PMS5003;66430;50.182;11.704;2023-04-12T04:17:02;13;11;
77365;PMS5003;66430;50.182;11.704;2023-04-12T04:19:27;13;11;
77365;PMS5003;66430;50.182;11.704;2023-04-12T04:21:52;8;7;
77365;PMS5003;66430;50.182;11.704;2023-04-12T04:24:18;7;7;
77365;PMS5003;66430;50.182;11.704;2023-04-12T04:26:43;7;7;
77365;PMS5003;66430;50.182;11.704;2023-04-12T04:29:09;11;8;
77365;PMS5003;66430;50.182;11.704;2023-04-12T04:31:34;4;4;
77365;PMS5003;66430;50.182;11.704;2023-04-12T04:34:00;7;6;
77365;PMS5003;66430;50.182;11.704;2023-04-12T04:36:25;8;6;
77365;PMS5003;66430;50.182;11.704;2023-04-12T04:38:51;7;7;
77365;PMS5003;66430;50.182;11.704;2023-04-12T04:41:17;7;7;
77365;PMS5003;66430;50.182;11.704;2023-04-12T04:43:42;6;6;
77365;PMS5003;66430;50.182;11.704;2023-04-12T04:46:08;7;7;
77365;PMS5003;66430;50.182;11.704;2023-04-12T04:48:33;8;8;
77365;PMS5003;66430;50.182;11.704;2023-04-12T04:50:59;8;7;
77365;PMS5003;66430;50.182;11.704;2023-04-12T04:53:24;9;9;
77365;PMS5003;66430;50.182;11.704;2023-04-12T04:58:15;6;6;
77365;PMS5003;66430;50.182;11.704;2023-04-12T05:00:41;7;6;
77365;PMS5003;66430;50.182;11.704;2023-04-12T05:03:06;4;4;
77365;PMS5003;66430;50.182;11.704;2023-04-12T05:05:32;4;4;
77365;PMS5003;66430;50.182;11.704;2023-04-12T05:07:57;4;4;
77365;PMS5003;66430;50.182;11.704;2023-04-12T05:10:23;5;4;
77365;PMS5003;66430;50.182;11.704;2023-04-12T05:12:49;6;4;
77365;PMS5003;66430;50.182;11.704;2023-04-12T05:15:14;4;4;
77365;PMS5003;66430;50.182;11.704;2023-04-12T05:17:40;5;4;
77365;PMS5003;66430;50.182;11.704;2023-04-12T05:20:06;5;4;
77365;PMS5003;66430;50.182;11.704;2023-04-12T05:22:31;4;4;
77365;PMS5003;66430;50.182;11.704;2023-04-12T05:24:56;7;5;
77365;PMS5003;66430;50.182;11.704;2023-04-12T05:27:22;4;4;
77365;PMS5003;66430;50.182;11.704;2023-04-12T05:29:47;3;3;
77365;PMS5003;66430;50.182;11.704;2023-04-12T05:32:13;4;4;
77365;PMS5003;66430;50.182;11.704;2023-04-12T05:34:39;5;5;
77365;PMS5003;66430;50.182;11.704;2023-04-12T05:37:04;6;6;
77365;PMS5003;66430;50.182;11.704;2023-04-12T05:39:29;3;3;
77365;PMS5003;66430;50.182;11.704;2023-04-12T05:41:55;5;4;
77365;PMS5003;66430;50.182;11.704;2023-04-12T05:44:21;5;5;
77365;PMS5003;66430;50.182;11.704;2023-04-12T05:46:46;4;4;
77365;PMS5003;66430;50.182;11.704;2023-04-12T05:49:12;6;6;
77365;PMS5003;66430;50.182;11.704;2023-04-12T05:51:37;5;5;
77365;PMS5003;66430;50.182;11.704;2023-04-12T05:54:02;5;5;
77365;PMS5003;66430;50.182;11.704;2023-04-12T05:56:28;7;6;
77365;PMS5003;66430;50.182;11.704;2023-04-12T05:58:53;4;4;
77365;PMS5003;66430;50.182;11.704;2023-04-12T06:01:19;12;10;
77365;PMS5003;66430;50.182;11.704;2023-04-12T06:03:44;5;5;
77365;PMS5003;66430;50.182;11.704;2023-04-12T06:06:10;6;6;
77365;PMS5003;66430;50.182;11.704;2023-04-12T06:08:35;4;4;
77365;PMS5003;66430;50.182;11.704;2023-04-12T06:11:01;6;3;
77365;PMS5003;66430;50.182;11.704;2023-04-12T06:13:26;4;4;
77365;PMS5003;66430;50.182;11.704;2023-04-12T06:15:52;7;6;
77365;PMS5003;66430;50.182;11.704;2023-04-12T06:18:18;4;4;
77365;PMS5003;66430;50.182;11.704;2023-04-12T06:20:43;5;4;
77365;PMS5003;66430;50.182;11.704;2023-04-12T06:23:10;6;6;
77365;PMS5003;66430;50.182;11.704;2023-04-12T06:25:34;10;6;
77365;PMS5003;66430;50.182;11.704;2023-04-12T06:28:00;5;5;
77365;PMS5003;66430;50.182;11.704;2023-04-12T06:30:25;6;6;
77365;PMS5003;66430;50.182;11.704;2023-04-12T06:32:51;5;5;
77365;PMS5003;66430;50.182;11.704;2023-04-12T06:35:16;5;5;
77365;PMS5003;66430;50.182;11.704;2023-04-12T06:37:41;9;7;
77365;PMS5003;66430;50.182;11.704;2023-04-12T06:40:07;5;5;
77365;PMS5003;66430;50.182;11.704;2023-04-12T06:42:33;8;8;
77365;PMS5003;66430;50.182;11.704;2023-04-12T06:44:58;5;4;
77365;PMS5003;66430;50.182;11.704;2023-04-12T06:47:24;4;4;
77365;PMS5003;66430;50.182;11.704;2023-04-12T06:49:49;5;5;
77365;PMS5003;66430;50.182;11.704;2023-04-12T06:52:15;6;5;
77365;PMS5003;66430;50.182;11.704;2023-04-12T06:54:40;7;5;
77365;PMS5003;66430;50.182;11.704;2023-04-12T06:57:07;4;4;
77365;PMS5003;66430;50.182;11.704;2023-04-12T06:59:31;4;4;
77365;PMS5003;66430;50.182;11.704;2023-04-12T07:01:57;8;6;
77365;PMS5003;66430;50.182;11.704;2023-04-12T07:04:23;5;5;
77365;PMS5003;66430;50.182;11.704;2023-04-12T07:06:52;5;4;
77365;PMS5003;66430;50.182;11.704;2023-04-12T07:09:14;9;7;
77365;PMS5003;66430;50.182;11.704;2023-04-12T07:11:39;13;11;
77365;PMS5003;66430;50.182;11.704;2023-04-12T07:14:06;4;4;
77365;PMS5003;66430;50.182;11.704;2023-04-12T07:16:30;5;4;
77365;PMS5003;66430;50.182;11.704;2023-04-12T07:18:57;5;5;
77365;PMS5003;66430;50.182;11.704;2023-04-12T07:21:22;7;6;
77365;PMS5003;66430;50.182;11.704;2023-04-12T07:23:48;7;6;
77365;PMS5003;66430;50.182;11.704;2023-04-12T07:26:13;10;8;
77365;PMS5003;66430;50.182;11.704;2023-04-12T07:28:38;9;6;
77365;PMS5003;66430;50.182;11.704;2023-04-12T07:31:06;7;7;
77365;PMS5003;66430;50.182;11.704;2023-04-12T07:33:29;8;8;
77365;PMS5003;66430;50.182;11.704;2023-04-12T07:35:55;11;8;
77365;PMS5003;66430;50.182;11.704;2023-04-12T07:38:19;7;5;
77365;PMS5003;66430;50.182;11.704;2023-04-12T07:40:45;6;6;
77365;PMS5003;66430;50.182;11.704;2023-04-12T07:43:11;7;7;
77365;PMS5003;66430;50.182;11.704;2023-04-12T07:45:36;8;7;
77365;PMS5003;66430;50.182;11.704;2023-04-12T07:48:02;8;5;
77365;PMS5003;66430;50.182;11.704;2023-04-12T07:50:27;9;9;
77365;PMS5003;66430;50.182;11.704;2023-04-12T07:52:56;15;14;
77365;PMS5003;66430;50.182;11.704;2023-04-12T07:55:19;10;10;
77365;PMS5003;66430;50.182;11.704;2023-04-12T07:57:44;7;6;
77365;PMS5003;66430;50.182;11.704;2023-04-12T08:00:10;8;7;
77365;PMS5003;66430;50.182;11.704;2023-04-12T08:02:36;9;9;
77365;PMS5003;66430;50.182;11.704;2023-04-12T08:05:01;7;7;
77365;PMS5003;66430;50.182;11.704;2023-04-12T08:07:26;9;7;
77365;PMS5003;66430;50.182;11.704;2023-04-12T08:09:52;8;8;
77365;PMS5003;66430;50.182;11.704;2023-04-12T08:12:17;11;9;
77365;PMS5003;66430;50.182;11.704;2023-04-12T08:14:43;6;6;
77365;PMS5003;66430;50.182;11.704;2023-04-12T08:17:10;11;9;
77365;PMS5003;66430;50.182;11.704;2023-04-12T08:19:33;9;7;
77365;PMS5003;66430;50.182;11.704;2023-04-12T08:21:59;6;6;
77365;PMS5003;66430;50.182;11.704;2023-04-12T08:24:24;6;6;
77365;PMS5003;66430;50.182;11.704;2023-04-12T08:26:49;7;4;
77365;PMS5003;66430;50.182;11.704;2023-04-12T08:29:15;5;5;
77365;PMS5003;66430;50.182;11.704;2023-04-12T08:31:40;6;5;
77365;PMS5003;66430;50.182;11.704;2023-04-12T08:34:06;6;6;
77365;PMS5003;66430;50.182;11.704;2023-04-12T08:36:31;12;10;
77365;PMS5003;66430;50.182;11.704;2023-04-12T08:38:57;8;6;
77365;PMS5003;66430;50.182;11.704;2023-04-12T08:41:21;8;8;
77365;PMS5003;66430;50.182;11.704;2023-04-12T08:43:47;6;6;
77365;PMS5003;66430;50.182;11.704;2023-04-12T08:46:14;11;8;
77365;PMS5003;66430;50.182;11.704;2023-04-12T08:48:38;10;8;
77365;PMS5003;66430;50.182;11.704;2023-04-12T08:51:03;7;7;
77365;PMS5003;66430;50.182;11.704;2023-04-12T08:53:29;4;4;
77365;PMS5003;66430;50.182;11.704;2023-04-12T08:55:54;7;6;
77365;PMS5003;66430;50.182;11.704;2023-04-12T08:58:19;11;8;
77365;PMS5003;66430;50.182;11.704;2023-04-12T09:00:45;10;8;
77365;PMS5003;66430;50.182;11.704;2023-04-12T09:03:10;8;6;
77365;PMS5003;66430;50.182;11.704;2023-04-12T09:05:36;9;7;
77365;PMS5003;66430;50.182;11.704;2023-04-12T09:08:02;6;6;
77365;PMS5003;66430;50.182;11.704;2023-04-12T09:10:30;7;6;
77365;PMS5003;66430;50.182;11.704;2023-04-12T09:12:52;5;5;
77365;PMS5003;66430;50.182;11.704;2023-04-12T09:15:18;10;7;
77365;PMS5003;66430;50.182;11.704;2023-04-12T09:17:43;5;5;
77365;PMS5003;66430;50.182;11.704;2023-04-12T09:22:35;8;8;
77365;PMS5003;66430;50.182;11.704;2023-04-12T09:25:00;4;4;
77365;PMS5003;66430;50.182;11.704;2023-04-12T09:27:25;5;5;
77365;PMS5003;66430;50.182;11.704;2023-04-12T09:29:51;6;6;
77365;PMS5003;66430;50.182;11.704;2023-04-12T09:34:53;6;6;
77365;PMS5003;66430;50.182;11.704;2023-04-12T09:37:12;6;6;
77365;PMS5003;66430;50.182;11.704;2023-04-12T09:39:33;4;4;
77365;PMS5003;66430;50.182;11.704;2023-04-12T09:42:04;6;5;
77365;PMS5003;66430;50.182;11.704;2023-04-12T09:44:27;4;4;
77365;PMS5003;66430;50.182;11.704;2023-04-12T09:46:51;4;4;
77365;PMS5003;66430;50.182;11.704;2023-04-12T09:49:15;6;5;
77365;PMS5003;66430;50.182;11.704;2023-04-12T09:51:40;5;5;
77365;PMS5003;66430;50.182;11.704;2023-04-12T09:54:07;5;5;
77365;PMS5003;66430;50.182;11.704;2023-04-12T09:56:32;6;6;
77365;PMS5003;66430;50.182;11.704;2023-04-12T09:58:59;4;4;
77365;PMS5003;66430;50.182;11.704;2023-04-12T10:01:22;6;6;
77365;PMS5003;66430;50.182;11.704;2023-04-12T10:03:48;6;5;
77365;PMS5003;66430;50.182;11.704;2023-04-12T10:06:13;5;5;
77365;PMS5003;66430;50.182;11.704;2023-04-12T10:08:39;7;6;
77365;PMS5003;66430;50.182;11.704;2023-04-12T10:11:04;5;5;
77365;PMS5003;66430;50.182;11.704;2023-04-12T10:13:31;7;5;
77365;PMS5003;66430;50.182;11.704;2023-04-12T10:18:22;6;6;
77365;PMS5003;66430;50.182;11.704;2023-04-12T10:20:46;7;7;
77365;PMS5003;66430;50.182;11.704;2023-04-12T10:23:12;6;6;
77365;PMS5003;66430;50.182;11.704;2023-04-12T10:25:38;8;7;
77365;PMS5003;66430;50.182;11.704;2023-04-12T10:30:29;7;7;
77365;PMS5003;66430;50.182;11.704;2023-04-12T10:35:20;7;6;
77365;PMS5003;66430;50.182;11.704;2023-04-12T10:40:15;7;6;
77365;PMS5003;66430;50.182;11.704;2023-04-12T10:42:36;4;4;
77365;PMS5003;66430;50.182;11.704;2023-04-12T10:52:17;5;5;
77365;PMS5003;66430;50.182;11.704;2023-04-12T10:54:43;5;5;
77365;PMS5003;66430;50.182;11.704;2023-04-12T11:02:09;9;7;
77365;PMS5003;66430;50.182;11.704;2023-04-12T11:04:25;7;7;
77365;PMS5003;66430;50.182;11.704;2023-04-12T11:06:54;5;5;
77365;PMS5003;66430;50.182;11.704;2023-04-12T11:09:17;6;6;
77365;PMS5003;66430;50.182;11.704;2023-04-12T11:11:41;7;7;
77365;PMS5003;66430;50.182;11.704;2023-04-12T11:14:08;5;5;
77365;PMS5003;66430;50.182;11.704;2023-04-12T11:16:32;5;5;
77365;PMS5003;66430;50.182;11.704;2023-04-12T11:18:58;6;6;
77365;PMS5003;66430;50.182;11.704;2023-04-12T11:21:23;7;7;
77365;PMS5003;66430;50.182;11.704;2023-04-12T11:23:50;7;5;
77365;PMS5003;66430;50.182;11.704;2023-04-12T11:26:17;3;3;
77365;PMS5003;66430;50.182;11.704;2023-04-12T11:28:40;5;5;
77365;PMS5003;66430;50.182;11.704;2023-04-12T11:31:05;5;5;
77365;PMS5003;66430;50.182;11.704;2023-04-12T11:33:31;6;4;
77365;PMS5003;66430;50.182;11.704;2023-04-12T11:35:56;6;6;
77365;PMS5003;66430;50.182;11.704;2023-04-12T11:38:22;5;5;
77365;PMS5003;66430;50.182;11.704;2023-04-12T11:40:47;3;3;
77365;PMS5003;66430;50.182;11.704;2023-04-12T11:43:17;3;3;
77365;PMS5003;66430;50.182;11.704;2023-04-12T11:45:38;4;4;
77365;PMS5003;66430;50.182;11.704;2023-04-12T11:48:06;3;3;
77365;PMS5003;66430;50.182;11.704;2023-04-12T11:50:29;3;3;
77365;PMS5003;66430;50.182;11.704;2023-04-12T11:52:54;4;4;
77365;PMS5003;66430;50.182;11.704;2023-04-12T11:55:20;4;3;
77365;PMS5003;66430;50.182;11.704;2023-04-12T11:57:45;3;3;
77365;PMS5003;66430;50.182;11.704;2023-04-12T12:00:11;3;3;
77365;PMS5003;66430;50.182;11.704;2023-04-12T12:02:36;2;2;
77365;PMS5003;66430;50.182;11.704;2023-04-12T12:05:02;2;2;
77365;PMS5003;66430;50.182;11.704;2023-04-12T12:07:27;2;2;
77365;PMS5003;66430;50.182;11.704;2023-04-12T12:09:53;3;3;
77365;PMS5003;66430;50.182;11.704;2023-04-12T12:12:18;3;3;
77365;PMS5003;66430;50.182;11.704;2023-04-12T12:14:44;3;3;
77365;PMS5003;66430;50.182;11.704;2023-04-12T12:17:11;3;3;
77365;PMS5003;66430;50.182;11.704;2023-04-12T12:19:35;3;3;
77365;PMS5003;66430;50.182;11.704;2023-04-12T12:22:08;4;3;
77365;PMS5003;66430;50.182;11.704;2023-04-12T12:24:26;5;3;
77365;PMS5003;66430;50.182;11.704;2023-04-12T12:26:51;3;3;
77365;PMS5003;66430;50.182;11.704;2023-04-12T12:29:17;2;2;
77365;PMS5003;66430;50.182;11.704;2023-04-12T12:31:44;3;3;
77365;PMS5003;66430;50.182;11.704;2023-04-12T12:34:10;4;3;
77365;PMS5003;66430;50.182;11.704;2023-04-12T12:36:34;3;3;
77365;PMS5003;66430;50.182;11.704;2023-04-12T12:39:02;2;2;
77365;PMS5003;66430;50.182;11.704;2023-04-12T12:41:24;3;2;
77365;PMS5003;66430;50.182;11.704;2023-04-12T12:43:50;4;4;
77365;PMS5003;66430;50.182;11.704;2023-04-12T12:46:15;3;3;
77365;PMS5003;66430;50.182;11.704;2023-04-12T12:48:40;3;3;
77365;PMS5003;66430;50.182;11.704;2023-04-12T12:51:06;3;3;
77365;PMS5003;66430;50.182;11.704;2023-04-12T12:53:36;4;4;
77365;PMS5003;66430;50.182;11.704;2023-04-12T12:55:56;3;3;
77365;PMS5003;66430;50.182;11.704;2023-04-12T12:58:22;3;3;
77365;PMS5003;66430;50.182;11.704;2023-04-12T13:00:48;4;4;
77365;PMS5003;66430;50.182;11.704;2023-04-12T13:03:14;6;5;
77365;PMS5003;66430;50.182;11.704;2023-04-12T13:05:38;4;4;
77365;PMS5003;66430;50.182;11.704;2023-04-12T13:08:04;6;5;
77365;PMS5003;66430;50.182;11.704;2023-04-12T13:10:30;4;4;
77365;PMS5003;66430;50.182;11.704;2023-04-12T13:12:55;5;5;
77365;PMS5003;66430;50.182;11.704;2023-04-12T13:15:20;8;6;
77365;PMS5003;66430;50.182;11.704;2023-04-12T13:17:46;5;5;
77365;PMS5003;66430;50.182;11.704;2023-04-12T13:20:11;5;5;
77365;PMS5003;66430;50.182;11.704;2023-04-12T13:22:37;6;6;
77365;PMS5003;66430;50.182;11.704;2023-04-12T13:25:03;5;5;
77365;PMS5003;66430;50.182;11.704;2023-04-12T13:27:28;6;5;
77365;PMS5003;66430;50.182;11.704;2023-04-12T13:29:53;5;5;
77365;PMS5003;66430;50.182;11.704;2023-04-12T13:32:19;4;4;
77365;PMS5003;66430;50.182;11.704;2023-04-12T13:34:44;6;5;
77365;PMS5003;66430;50.182;11.704;2023-04-12T13:37:10;5;4;
77365;PMS5003;66430;50.182;11.704;2023-04-12T13:39:35;5;5;
77365;PMS5003;66430;50.182;11.704;2023-04-12T13:42:00;7;6;
77365;PMS5003;66430;50.182;11.704;2023-04-12T13:44:27;4;4;
77365;PMS5003;66430;50.182;11.704;2023-04-12T13:46:51;5;5;
77365;PMS5003;66430;50.182;11.704;2023-04-12T13:49:17;3;3;
77365;PMS5003;66430;50.182;11.704;2023-04-12T13:51:42;7;5;
77365;PMS5003;66430;50.182;11.704;2023-04-12T13:54:09;4;4;
77365;PMS5003;66430;50.182;11.704;2023-04-12T13:56:33;6;6;
77365;PMS5003;66430;50.182;11.704;2023-04-12T13:58:59;6;5;
77365;PMS5003;66430;50.182;11.704;2023-04-12T14:01:24;5;5;
77365;PMS5003;66430;50.182;11.704;2023-04-12T14:03:49;5;4;
77365;PMS5003;66430;50.182;11.704;2023-04-12T14:06:15;6;6;
77365;PMS5003;66430;50.182;11.704;2023-04-12T14:08:40;7;5;
77365;PMS5003;66430;50.182;11.704;2023-04-12T14:11:06;6;5;
77365;PMS5003;66430;50.182;11.704;2023-04-12T14:13:31;4;4;
77365;PMS5003;66430;50.182;11.704;2023-04-12T14:15:56;7;7;
77365;PMS5003;66430;50.182;11.704;2023-04-12T14:18:23;6;6;
77365;PMS5003;66430;50.182;11.704;2023-04-12T14:20:50;6;6;
77365;PMS5003;66430;50.182;11.704;2023-04-12T14:23:13;5;5;
77365;PMS5003;66430;50.182;11.704;2023-04-12T14:25:39;8;7;
77365;PMS5003;66430;50.182;11.704;2023-04-12T14:28:05;6;6;
77365;PMS5003;66430;50.182;11.704;2023-04-12T14:30:30;7;6;
77365;PMS5003;66430;50.182;11.704;2023-04-12T14:32:55;7;7;
77365;PMS5003;66430;50.182;11.704;2023-04-12T14:35:21;9;9;
77365;PMS5003;66430;50.182;11.704;2023-04-12T14:37:47;9;7;
77365;PMS5003;66430;50.182;11.704;2023-04-12T14:40:11;5;5;
77365;PMS5003;66430;50.182;11.704;2023-04-12T14:42:37;7;7;
77365;PMS5003;66430;50.182;11.704;2023-04-12T14:45:03;5;5;
77365;PMS5003;66430;50.182;11.704;2023-04-12T14:47:28;7;7;
77365;PMS5003;66430;50.182;11.704;2023-04-12T14:49:54;7;7;
77365;PMS5003;66430;50.182;11.704;2023-04-12T14:52:19;5;5;
77365;PMS5003;66430;50.182;11.704;2023-04-12T14:54:45;8;6;
77365;PMS5003;66430;50.182;11.704;2023-04-12T14:57:10;5;5;
77365;PMS5003;66430;50.182;11.704;2023-04-12T14:59:35;6;5;
77365;PMS5003;66430;50.182;11.704;2023-04-12T15:02:00;6;6;
77365;PMS5003;66430;50.182;11.704;2023-04-12T15:04:26;7;7;
77365;PMS5003;66430;50.182;11.704;2023-04-12T15:06:51;9;9;
77365;PMS5003;66430;50.182;11.704;2023-04-12T15:09:17;7;7;
77365;PMS5003;66430;50.182;11.704;2023-04-12T15:11:42;7;7;
77365;PMS5003;66430;50.182;11.704;2023-04-12T15:14:07;11;10;
77365;PMS5003;66430;50.182;11.704;2023-04-12T15:16:33;7;7;
77365;PMS5003;66430;50.182;11.704;2023-04-12T15:18:59;7;7;
77365;PMS5003;66430;50.182;11.704;2023-04-12T15:21:24;7;7;
77365;PMS5003;66430;50.182;11.704;2023-04-12T15:23:49;10;8;
77365;PMS5003;66430;50.182;11.704;2023-04-12T15:26:15;9;9;
77365;PMS5003;66430;50.182;11.704;2023-04-12T15:28:40;6;6;
77365;PMS5003;66430;50.182;11.704;2023-04-12T15:31:08;11;9;
77365;PMS5003;66430;50.182;11.704;2023-04-12T15:33:32;8;8;
77365;PMS5003;66430;50.182;11.704;2023-04-12T15:35:57;8;7;
77365;PMS5003;66430;50.182;11.704;2023-04-12T15:38:22;10;10;
77365;PMS5003;66430;50.182;11.704;2023-04-12T15:40:48;10;10;
77365;PMS5003;66430;50.182;11.704;2023-04-12T15:43:13;9;9;
77365;PMS5003;66430;50.182;11.704;2023-04-12T15:45:39;11;11;
77365;PMS5003;66430;50.182;11.704;2023-04-12T15:48:04;10;9;
77365;PMS5003;66430;50.182;11.704;2023-04-12T15:50:39;9;9;
77365;PMS5003;66430;50.182;11.704;2023-04-12T15:52:55;11;11;
77365;PMS5003;66430;50.182;11.704;2023-04-12T15:55:25;11;10;
77365;PMS5003;66430;50.182;11.704;2023-04-12T15:57:46;13;11;
77365;PMS5003;66430;50.182;11.704;2023-04-12T16:00:12;10;10;
77365;PMS5003;66430;50.182;11.704;2023-04-12T16:02:37;13;12;
77365;PMS5003;66430;50.182;11.704;2023-04-12T16:05:02;15;14;
77365;PMS5003;66430;50.182;11.704;2023-04-12T16:07:28;10;9;
77365;PMS5003;66430;50.182;11.704;2023-04-12T16:09:54;12;10;
77365;PMS5003;66430;50.182;11.704;2023-04-12T16:12:19;11;9;
77365;PMS5003;66430;50.182;11.704;2023-04-12T16:14:44;12;12;
77365;PMS5003;66430;50.182;11.704;2023-04-12T16:17:10;10;10;
77365;PMS5003;66430;50.182;11.704;2023-04-12T16:19:35;8;8;
77365;PMS5003;66430;50.182;11.704;2023-04-12T16:22:02;12;11;
77365;PMS5003;66430;50.182;11.704;2023-04-12T16:24:26;10;9;
77365;PMS5003;66430;50.182;11.704;2023-04-12T16:26:51;12;12;
77365;PMS5003;66430;50.182;11.704;2023-04-12T16:29:16;10;9;
77365;PMS5003;66430;50.182;11.704;2023-04-12T16:31:42;10;10;
77365;PMS5003;66430;50.182;11.704;2023-04-12T16:34:12;11;10;
77365;PMS5003;66430;50.182;11.704;2023-04-12T16:36:33;8;8;
77365;PMS5003;66430;50.182;11.704;2023-04-12T16:38:58;8;8;
77365;PMS5003;66430;50.182;11.704;2023-04-12T16:44:16;11;11;
77365;PMS5003;66430;50.182;11.704;2023-04-12T16:46:40;10;10;
77365;PMS5003;66430;50.182;11.704;2023-04-12T16:49:06;10;10;
77365;PMS5003;66430;50.182;11.704;2023-04-12T16:51:31;12;12;